Time;durP1;ratioP1;P1;durP2;ratioP2;P2;SDS_P1;SDS_P2;PMS_P1;PMS_P2;Temp;Humidity;BMP_temperature;BMP_pressure;BME280_temperature;BME280_humidity;BME280_pressure;Samples;Min_cycle;Max_cycle;Signal;HPM_P1;HPM_P2
2020/12/16 00:00:21;;;;;;;327.40;64.10;;;;;;;;;;5031721;28;20227;-74
2020/12/16 00:03:05;;;;;;;283.67;52.23;;;;;;;;;;5031997;28;20228;-74
2020/12/16 00:05:50;;;;;;;145.33;42.67;;;;;;;;;;5031779;28;20208;-75
2020/12/16 00:08:35;;;;;;;367.70;59.23;;;;;;;;;;5032024;28;20600;-75
2020/12/16 00:11:20;;;;;;;320.23;51.67;;;;;;;;;;5031823;28;20290;-74
2020/12/16 00:14:04;;;;;;;271.50;44.53;;;;;;;;;;5030962;28;20300;-74
2020/12/16 00:16:49;;;;;;;192.23;46.17;;;;;;;;;;5031055;28;20272;-74
2020/12/16 00:19:33;;;;;;;286.17;52.00;;;;;;;;;;5030540;28;20224;-74
2020/12/16 00:22:18;;;;;;;554.67;68.77;;;;;;;;;;5031731;28;20226;-74
2020/12/16 00:25:03;;;;;;;472.33;65.83;;;;;;;;;;5031681;28;20247;-75
2020/12/16 00:27:48;;;;;;;422.63;65.50;;;;;;;;;;5013352;28;20236;-74
2020/12/16 00:30:33;;;;;;;209.60;42.53;;;;;;;;;;5011768;28;20205;-74
2020/12/16 00:33:17;;;;;;;329.00;60.73;;;;;;;;;;5011840;28;20216;-74
2020/12/16 00:36:02;;;;;;;281.30;58.03;;;;;;;;;;5010802;28;20210;-74
2020/12/16 00:38:47;;;;;;;235.07;54.17;;;;;;;;;;5011798;28;20228;-74
2020/12/16 00:41:32;;;;;;;145.70;44.37;;;;;;;;;;5011595;28;20213;-74
2020/12/16 00:44:17;;;;;;;289.55;59.92;;;;;;;;;;5011000;28;20442;-74
2020/12/16 00:47:01;;;;;;;462.40;75.17;;;;;;;;;;5011129;28;20218;-74
2020/12/16 00:49:46;;;;;;;246.13;55.50;;;;;;;;;;5011827;28;20206;-74
2020/12/16 00:52:31;;;;;;;265.17;59.43;;;;;;;;;;5011660;28;20205;-74
2020/12/16 00:55:15;;;;;;;209.03;53.43;;;;;;;;;;5011630;28;20209;-75
2020/12/16 00:58:01;;;;;;;155.90;45.97;;;;;;;;;;5030555;28;20735;-75
2020/12/16 01:00:45;;;;;;;345.60;66.40;;;;;;;;;;5031152;28;20336;-74
2020/12/16 01:03:30;;;;;;;204.87;51.90;;;;;;;;;;5030717;28;20356;-74
2020/12/16 01:06:14;;;;;;;186.97;51.17;;;;;;;;;;5030399;28;20611;-75
2020/12/16 01:08:59;;;;;;;523.47;88.23;;;;;;;;;;5030897;28;20258;-75
2020/12/16 01:11:43;;;;;;;283.40;60.93;;;;;;;;;;5030896;28;20632;-74
2020/12/16 01:14:28;;;;;;;234.70;54.83;;;;;;;;;;5030983;28;20288;-75
2020/12/16 01:17:13;;;;;;;238.50;53.22;;;;;;;;;;5029517;28;20453;-74
2020/12/16 01:19:57;;;;;;;161.63;48.47;;;;;;;;;;5030539;28;20412;-74
2020/12/16 01:22:43;;;;;;;260.40;59.83;;;;;;;;;;5030794;28;20220;-74
2020/12/16 01:25:27;;;;;;;138.47;42.17;;;;;;;;;;5030736;28;20237;-74
2020/12/16 01:28:12;;;;;;;206.40;49.37;;;;;;;;;;5030560;28;20204;-74
2020/12/16 01:30:57;;;;;;;239.03;44.43;;;;;;;;;;5030864;28;20207;-74
2020/12/16 01:33:41;;;;;;;177.90;45.67;;;;;;;;;;5029015;28;20204;-74
2020/12/16 01:36:26;;;;;;;250.43;48.90;;;;;;;;;;5030106;28;20232;-75
2020/12/16 01:39:11;;;;;;;321.87;61.43;;;;;;;;;;5032635;28;20207;-74
2020/12/16 01:41:55;;;;;;;269.67;55.20;;;;;;;;;;5034655;28;20207;-74
2020/12/16 01:44:40;;;;;;;309.43;57.90;;;;;;;;;;5034587;28;20224;-74
2020/12/16 01:47:25;;;;;;;278.20;53.53;;;;;;;;;;5034088;28;20221;-75
2020/12/16 01:50:11;;;;;;;282.10;51.47;;;;;;;;;;5034693;28;20223;-74
2020/12/16 01:52:57;;;;;;;396.73;62.23;;;;;;;;;;5034466;28;20212;-74
2020/12/16 01:55:42;;;;;;;551.30;85.23;;;;;;;;;;5033384;28;20199;-74
2020/12/16 01:58:29;;;;;;;353.90;51.73;;;;;;;;;;5034443;28;20283;-74
2020/12/16 02:01:17;;;;;;;229.77;51.73;;;;;;;;;;5034278;28;20224;-74
2020/12/16 02:04:03;;;;;;;275.73;56.20;;;;;;;;;;5032990;28;20297;-74
2020/12/16 02:06:49;;;;;;;221.20;50.50;;;;;;;;;;5033716;28;20231;-74
2020/12/16 02:09:37;;;;;;;284.00;57.13;;;;;;;;;;5033978;28;20236;-74
2020/12/16 02:12:23;;;;;;;248.37;50.57;;;;;;;;;;5033999;28;20207;-74
2020/12/16 02:15:08;;;;;;;203.77;49.57;;;;;;;;;;5032000;28;20250;-74
2020/12/16 02:17:53;;;;;;;236.33;54.13;;;;;;;;;;5033384;28;20302;-74
2020/12/16 02:20:38;;;;;;;285.60;52.47;;;;;;;;;;5033640;28;20204;-74
2020/12/16 02:23:26;;;;;;;367.93;77.13;;;;;;;;;;5033186;28;20481;-74
2020/12/16 02:26:11;;;;;;;182.07;48.50;;;;;;;;;;5033042;28;20221;-74
2020/12/16 02:28:55;;;;;;;153.70;48.23;;;;;;;;;;5033718;28;20208;-74
2020/12/16 02:31:41;;;;;;;315.90;60.80;;;;;;;;;;5033561;28;20300;-74
2020/12/16 02:34:25;;;;;;;258.87;61.10;;;;;;;;;;5033671;28;20722;-74
2020/12/16 02:37:10;;;;;;;329.40;67.57;;;;;;;;;;5032941;28;20279;-74
2020/12/16 02:39:55;;;;;;;175.77;49.77;;;;;;;;;;5033247;28;20204;-74
2020/12/16 02:42:40;;;;;;;191.37;51.17;;;;;;;;;;5033503;28;20226;-74
2020/12/16 02:45:25;;;;;;;221.00;55.83;;;;;;;;;;5032969;28;20207;-73
2020/12/16 02:48:09;;;;;;;214.77;53.40;;;;;;;;;;5032181;28;20262;-74
2020/12/16 02:50:54;;;;;;;151.90;48.43;;;;;;;;;;5033369;28;20244;-74
2020/12/16 02:53:38;;;;;;;246.20;56.10;;;;;;;;;;5033321;28;20254;-74
2020/12/16 02:56:23;;;;;;;273.38;79.35;;;;;;;;;;5030979;28;21308;-74
2020/12/16 02:59:08;;;;;;;230.63;60.73;;;;;;;;;;5032973;28;20203;-74
2020/12/16 03:01:53;;;;;;;165.30;48.13;;;;;;;;;;5032837;28;20319;-74
2020/12/16 03:04:38;;;;;;;224.00;52.40;;;;;;;;;;5032804;28;20385;-74
2020/12/16 03:07:22;;;;;;;195.23;54.73;;;;;;;;;;5032571;28;20234;-74
2020/12/16 03:10:07;;;;;;;223.93;55.50;;;;;;;;;;5032954;28;20277;-74
2020/12/16 03:12:51;;;;;;;215.00;56.87;;;;;;;;;;5032969;28;20212;-74
2020/12/16 03:15:37;;;;;;;212.23;55.40;;;;;;;;;;5032855;28;20202;-74
2020/12/16 03:18:21;;;;;;;163.97;52.63;;;;;;;;;;5032747;28;20682;-74
2020/12/16 03:21:06;;;;;;;171.23;50.77;;;;;;;;;;5032991;28;20206;-74
2020/12/16 03:23:50;;;;;;;190.17;52.30;;;;;;;;;;5032387;28;20282;-74
2020/12/16 03:26:35;;;;;;;135.70;44.80;;;;;;;;;;5031202;28;20231;-74
2020/12/16 03:29:19;;;;;;;223.20;56.33;;;;;;;;;;5032732;28;20218;-74
2020/12/16 03:32:05;;;;;;;156.73;45.90;;;;;;;;;;5032589;28;20195;-74
2020/12/16 03:34:49;;;;;;;131.57;44.10;;;;;;;;;;5032008;28;20265;-74
2020/12/16 03:37:34;;;;;;;104.53;42.43;;;;;;;;;;5031907;28;20266;-74
2020/12/16 03:40:18;;;;;;;210.17;54.33;;;;;;;;;;5032494;28;20202;-74
2020/12/16 03:43:03;;;;;;;106.33;37.97;;;;;;;;;;5032434;28;20219;-74
2020/12/16 03:45:47;;;;;;;103.63;38.23;;;;;;;;;;5031964;28;20202;-74
2020/12/16 03:48:33;;;;;;;89.67;37.53;;;;;;;;;;5032313;28;20199;-75
2020/12/16 03:51:17;;;;;;;88.53;36.90;;;;;;;;;;5032273;28;20322;-74
2020/12/16 03:54:02;;;;;;;111.70;39.60;;;;;;;;;;5031961;28;20261;-74
2020/12/16 03:56:47;;;;;;;142.37;43.80;;;;;;;;;;5030923;28;20611;-74
2020/12/16 03:59:32;;;;;;;204.90;50.17;;;;;;;;;;5032231;28;20212;-74
2020/12/16 04:02:16;;;;;;;129.70;62.00;;;;;;;;;;5030195;28;20856;-76
2020/12/16 04:05:02;;;;;;;117.43;45.77;;;;;;;;;;5016455;28;20299;-74
2020/12/16 04:07:46;;;;;;;128.90;45.63;;;;;;;;;;5012460;28;20309;-74
2020/12/16 04:10:30;;;;;;;88.03;37.50;;;;;;;;;;5031842;28;20231;-74
2020/12/16 04:13:15;;;;;;;96.80;40.63;;;;;;;;;;5031929;28;20255;-74
2020/12/16 04:15:59;;;;;;;129.10;43.83;;;;;;;;;;5030905;28;20231;-74
2020/12/16 04:18:44;;;;;;;52.00;32.47;;;;;;;;;;5031709;28;20756;-74
2020/12/16 04:21:29;;;;;;;100.63;40.37;;;;;;;;;;5031601;28;20346;-74
2020/12/16 04:24:13;;;;;;;62.53;33.27;;;;;;;;;;5031375;28;20297;-74
2020/12/16 04:26:58;;;;;;;109.73;41.30;;;;;;;;;;5031102;28;20218;-74
2020/12/16 04:29:43;;;;;;;86.37;39.57;;;;;;;;;;5031701;28;20335;-74
2020/12/16 04:32:27;;;;;;;104.45;51.10;;;;;;;;;;5031455;28;20414;-74
2020/12/16 04:35:12;;;;;;;59.50;38.37;;;;;;;;;;5031629;28;20216;-74
2020/12/16 04:37:57;;;;;;;45.93;32.10;;;;;;;;;;5026679;28;20280;-74
2020/12/16 04:40:41;;;;;;;53.80;35.13;;;;;;;;;;5011587;28;20202;-74
2020/12/16 04:43:26;;;;;;;63.33;36.93;;;;;;;;;;5011467;28;20719;-73
2020/12/16 04:46:13;;;;;;;56.47;35.27;;;;;;;;;;5011035;28;20271;-73
2020/12/16 04:48:58;;;;;;;61.47;37.37;;;;;;;;;;5011462;28;20313;-75
2020/12/16 04:51:43;;;;;;;56.37;35.63;;;;;;;;;;5011641;28;20203;-75
2020/12/16 04:54:29;;;;;;;63.67;36.00;;;;;;;;;;5016977;28;20221;-74
2020/12/16 04:57:13;;;;;;;79.10;37.60;;;;;;;;;;5030685;28;20570;-74
2020/12/16 04:59:58;;;;;;;106.50;41.00;;;;;;;;;;5031131;28;20201;-75
2020/12/16 05:02:48;;;;;;;118.53;43.67;;;;;;;;;;5030832;28;20297;-75
2020/12/16 05:05:33;;;;;;;81.10;37.80;;;;;;;;;;5030875;28;20671;-75
2020/12/16 05:08:17;;;;;;;109.37;42.57;;;;;;;;;;5030759;28;20647;-75
2020/12/16 05:11:02;;;;;;;103.63;37.73;;;;;;;;;;5017146;28;20246;-75
2020/12/16 05:13:46;;;;;;;72.73;38.10;;;;;;;;;;5014235;28;20204;-75
2020/12/16 05:16:31;;;;;;;116.50;43.13;;;;;;;;;;5028203;28;20225;-75
2020/12/16 05:19:28;;;;;;;137.17;44.10;;;;;;;;;;5035248;28;20547;-75
2020/12/16 05:22:23;;;;;;;153.80;42.77;;;;;;;;;;5035132;28;20290;-75
2020/12/16 05:25:07;;;;;;;133.43;40.67;;;;;;;;;;5034827;28;20690;-75
2020/12/16 05:27:52;;;;;;;76.17;37.27;;;;;;;;;;5034337;28;20586;-75
2020/12/16 05:30:37;;;;;;;102.07;41.83;;;;;;;;;;5034859;28;20206;-75
2020/12/16 05:33:22;;;;;;;93.90;36.43;;;;;;;;;;5034688;28;20245;-75
2020/12/16 05:36:08;;;;;;;139.20;42.37;;;;;;;;;;5034017;28;20238;-75
2020/12/16 05:38:53;;;;;;;414.88;88.18;;;;;;;;;;5033834;28;20498;-75
2020/12/16 05:41:38;;;;;;;267.43;55.60;;;;;;;;;;5034699;28;20226;-75
2020/12/16 05:44:25;;;;;;;199.53;49.57;;;;;;;;;;5034354;28;20215;-76
2020/12/16 05:47:09;;;;;;;287.20;47.97;;;;;;;;;;5033883;28;20311;-74
2020/12/16 05:49:53;;;;;;;129.37;41.70;;;;;;;;;;5034404;28;20202;-74
2020/12/16 05:52:38;;;;;;;191.33;46.37;;;;;;;;;;5034503;28;20249;-74
2020/12/16 05:55:26;;;;;;;157.77;41.33;;;;;;;;;;5034506;28;20685;-74
2020/12/16 05:58:12;;;;;;;162.03;40.77;;;;;;;;;;5033932;28;20207;-76
2020/12/16 06:00:58;;;;;;;481.93;69.30;;;;;;;;;;5034272;28;20268;-74
2020/12/16 06:03:43;;;;;;;134.83;40.77;;;;;;;;;;5022378;28;20251;-75
2020/12/16 06:06:27;;;;;;;182.93;38.53;;;;;;;;;;5013899;28;20334;-75
2020/12/16 06:09:12;;;;;;;177.47;40.77;;;;;;;;;;5015154;28;20254;-75
2020/12/16 06:12:03;;;;;;;286.77;70.88;;;;;;;;;;5033200;28;20418;-75
2020/12/16 06:14:48;;;;;;;146.90;40.73;;;;;;;;;;5034190;28;20204;-75
2020/12/16 06:17:38;;;;;;;291.10;56.17;;;;;;;;;;5033577;28;20239;-75
2020/12/16 06:20:23;;;;;;;133.10;40.33;;;;;;;;;;5033973;28;20286;-75
2020/12/16 06:23:12;;;;;;;186.87;39.60;;;;;;;;;;5033613;28;20220;-75
2020/12/16 06:25:57;;;;;;;173.70;40.33;;;;;;;;;;5019129;28;20273;-75
2020/12/16 06:28:42;;;;;;;163.87;37.43;;;;;;;;;;5014144;28;20203;-75
2020/12/16 06:31:27;;;;;;;177.03;36.33;;;;;;;;;;5016406;28;20206;-75
2020/12/16 06:34:13;;;;;;;324.27;49.23;;;;;;;;;;5014016;28;20237;-75
2020/12/16 06:36:58;;;;;;;216.90;40.83;;;;;;;;;;5013179;28;20261;-74
2020/12/16 06:39:42;;;;;;;325.83;50.00;;;;;;;;;;5027704;28;20210;-75
2020/12/16 06:42:32;;;;;;;291.87;48.10;;;;;;;;;;5021658;28;20556;-74
2020/12/16 06:45:17;;;;;;;153.33;32.80;;;;;;;;;;5033236;28;20642;-75
2020/12/16 06:48:26;;;;;;;221.07;37.20;;;;;;;;;;5017307;28;20206;-75
2020/12/16 06:51:15;;;;;;;224.63;31.93;;;;;;;;;;5020277;28;20213;-75
2020/12/16 06:54:03;;;;;;;286.37;45.93;;;;;;;;;;5033042;28;20684;-75
2020/12/16 06:56:48;;;;;;;328.83;41.33;;;;;;;;;;5031468;28;20229;-75
2020/12/16 06:59:42;;;;;;;407.30;49.57;;;;;;;;;;5032767;28;20206;-74
2020/12/16 07:02:28;;;;;;;155.50;28.63;;;;;;;;;;5022914;28;20206;-75
2020/12/16 07:05:31;;;;;;;281.77;36.93;;;;;;;;;;5012971;28;20207;-75
2020/12/16 07:08:26;;;;;;;359.10;55.43;;;;;;;;;;5013091;28;20198;-75
2020/12/16 07:11:10;;;;;;;104.87;28.87;;;;;;;;;;5013373;28;20195;-75
2020/12/16 07:14:08;;;;;;;159.27;38.30;;;;;;;;;;5017613;28;20205;-75
2020/12/16 07:16:52;;;;;;;161.87;39.10;;;;;;;;;;5024928;28;20725;-75
2020/12/16 07:19:37;;;;;;;149.87;36.37;;;;;;;;;;5012770;28;20311;-75
2020/12/16 07:22:24;;;;;;;159.03;39.90;;;;;;;;;;5019542;28;20210;-75
2020/12/16 07:25:11;;;;;;;86.23;31.97;;;;;;;;;;5032401;28;20226;-75
2020/12/16 07:27:56;;;;;;;54.80;27.40;;;;;;;;;;5032176;28;20607;-75
2020/12/16 07:30:47;;;;;;;37.43;25.50;;;;;;;;;;5032603;28;20197;-75
2020/12/16 07:33:32;;;;;;;29.47;24.27;;;;;;;;;;5032593;28;20206;-75
2020/12/16 07:36:17;;;;;;;33.37;27.47;;;;;;;;;;5019219;28;20238;-75
2020/12/16 07:39:01;;;;;;;35.80;29.57;;;;;;;;;;5032451;28;20229;-75
2020/12/16 07:41:48;;;;;;;56.33;43.57;;;;;;;;;;5032296;28;20301;-75
2020/12/16 07:44:32;;;;;;;49.33;41.90;;;;;;;;;;5023413;28;20778;-75
2020/12/16 07:47:17;;;;;;;53.67;48.33;;;;;;;;;;5026688;28;20413;-75
2020/12/16 07:50:02;;;;;;;55.07;46.63;;;;;;;;;;5013482;28;20298;-74
2020/12/16 07:52:50;;;;;;;42.80;38.27;;;;;;;;;;5025809;28;20623;-74
2020/12/16 07:55:40;;;;;;;42.70;34.73;;;;;;;;;;5031735;28;20237;-76
2020/12/16 07:58:25;;;;;;;31.70;28.07;;;;;;;;;;5031968;28;20765;-75
2020/12/16 08:01:10;;;;;;;44.83;38.10;;;;;;;;;;5031465;28;20217;-74
2020/12/16 08:03:55;;;;;;;45.67;41.10;;;;;;;;;;5031869;28;20254;-74
2020/12/16 08:06:41;;;;;;;40.07;35.80;;;;;;;;;;5031232;28;20276;-75
2020/12/16 08:09:26;;;;;;;25.87;23.00;;;;;;;;;;5031934;28;20230;-74
2020/12/16 08:12:12;;;;;;;24.33;21.77;;;;;;;;;;5031651;28;20201;-76
2020/12/16 08:15:05;;;;;;;27.37;21.93;;;;;;;;;;5031691;28;20206;-74
2020/12/16 08:17:51;;;;;;;26.60;22.37;;;;;;;;;;5029718;28;20217;-74
2020/12/16 08:20:36;;;;;;;27.10;22.63;;;;;;;;;;5030100;28;20213;-76
2020/12/16 08:23:20;;;;;;;28.70;22.20;;;;;;;;;;5031320;28;20298;-74
2020/12/16 08:26:05;;;;;;;24.20;21.60;;;;;;;;;;5030786;28;20233;-73
2020/12/16 08:28:50;;;;;;;25.37;20.77;;;;;;;;;;5030146;28;20282;-73
2020/12/16 08:31:35;;;;;;;26.53;22.00;;;;;;;;;;5031471;28;20206;-72
2020/12/16 08:34:20;;;;;;;25.47;21.23;;;;;;;;;;5031198;28;20298;-72
2020/12/16 08:37:06;;;;;;;28.07;24.20;;;;;;;;;;5030638;28;20759;-73
2020/12/16 08:39:51;;;;;;;29.67;26.03;;;;;;;;;;5030898;28;20290;-73
2020/12/16 08:42:35;;;;;;;26.10;22.77;;;;;;;;;;5031377;28;20209;-74
2020/12/16 08:45:21;;;;;;;21.27;18.67;;;;;;;;;;5031261;28;20579;-73
2020/12/16 08:48:06;;;;;;;24.00;21.33;;;;;;;;;;5030190;28;20206;-73
2020/12/16 08:50:59;;;;;;;22.50;19.20;;;;;;;;;;5031249;28;20202;-74
2020/12/16 08:53:48;;;;;;;22.27;19.60;;;;;;;;;;5031068;28;20214;-74
2020/12/16 08:56:36;;;;;;;19.80;17.70;;;;;;;;;;5030896;28;20265;-72
2020/12/16 08:59:25;;;;;;;23.77;19.97;;;;;;;;;;5028671;28;20261;-73
2020/12/16 09:02:09;;;;;;;24.70;20.80;;;;;;;;;;5011193;28;20234;-74
2020/12/16 09:04:56;;;;;;;22.80;20.10;;;;;;;;;;5018053;28;20241;-73
2020/12/16 09:07:41;;;;;;;22.53;20.13;;;;;;;;;;5030387;28;20205;-76
2020/12/16 09:10:25;;;;;;;22.97;20.47;;;;;;;;;;5029792;28;20209;-73
2020/12/16 09:13:11;;;;;;;26.37;20.33;;;;;;;;;;5030642;28;20290;-73
2020/12/16 09:15:55;;;;;;;25.83;20.83;;;;;;;;;;5030340;28;20218;-78
2020/12/16 09:18:40;;;;;;;24.37;21.77;;;;;;;;;;5029684;28;20286;-73
2020/12/16 09:21:32;;;;;;;24.70;22.10;;;;;;;;;;5029560;28;20280;-74
2020/12/16 09:24:21;;;;;;;29.13;26.13;;;;;;;;;;5030611;28;20249;-73
2020/12/16 09:27:05;;;;;;;26.83;22.03;;;;;;;;;;5027447;28;20281;-72
2020/12/16 09:29:50;;;;;;;21.50;18.23;;;;;;;;;;5028252;28;20446;-73
2020/12/16 09:32:34;;;;;;;21.77;19.53;;;;;;;;;;5030699;28;20202;-73
2020/12/16 09:35:19;;;;;;;22.40;19.63;;;;;;;;;;5030580;28;20242;-74
2020/12/16 09:38:12;;;;;;;22.17;19.70;;;;;;;;;;5029967;28;20210;-73
2020/12/16 09:40:57;;;;;;;22.10;19.77;;;;;;;;;;5030496;28;20273;-73
2020/12/16 09:43:41;;;;;;;22.53;20.27;;;;;;;;;;5030497;28;20250;-72
2020/12/16 09:46:26;;;;;;;21.07;18.87;;;;;;;;;;5029905;28;20218;-72
2020/12/16 09:49:10;;;;;;;19.83;17.97;;;;;;;;;;5028550;28;20217;-73
2020/12/16 09:51:55;;;;;;;19.83;17.93;;;;;;;;;;5030209;28;20790;-73
2020/12/16 09:54:40;;;;;;;19.93;17.77;;;;;;;;;;5029438;28;20210;-74
2020/12/16 09:57:25;;;;;;;20.70;18.70;;;;;;;;;;5029159;28;20210;-74
2020/12/16 10:00:09;;;;;;;21.17;18.57;;;;;;;;;;5032004;28;20237;-73
2020/12/16 10:02:57;;;;;;;20.63;18.53;;;;;;;;;;5034165;28;20202;-72
2020/12/16 10:05:42;;;;;;;20.50;18.47;;;;;;;;;;5033909;28;20235;-73
2020/12/16 10:08:26;;;;;;;21.60;19.37;;;;;;;;;;5033362;28;20239;-72
2020/12/16 10:11:12;;;;;;;23.23;19.53;;;;;;;;;;5034093;28;20211;-74
2020/12/16 10:13:56;;;;;;;20.10;18.10;;;;;;;;;;5033938;28;20290;-72
2020/12/16 10:16:43;;;;;;;20.10;18.00;;;;;;;;;;5033459;28;20259;-73
2020/12/16 10:19:27;;;;;;;20.27;18.20;;;;;;;;;;5031511;28;20262;-72
2020/12/16 10:22:12;;;;;;;18.70;16.90;;;;;;;;;;5019630;28;20611;-72
2020/12/16 10:24:56;;;;;;;18.37;16.57;;;;;;;;;;5013622;28;20242;-72
2020/12/16 10:27:42;;;;;;;20.57;18.37;;;;;;;;;;5013434;28;20198;-73
2020/12/16 10:30:26;;;;;;;17.93;16.20;;;;;;;;;;5014000;28;20231;-72
2020/12/16 10:33:10;;;;;;;17.20;15.60;;;;;;;;;;5013749;28;20199;-73
2020/12/16 10:35:55;;;;;;;17.50;15.80;;;;;;;;;;5020920;28;20310;-73
2020/12/16 10:38:40;;;;;;;17.47;15.70;;;;;;;;;;5024218;28;20849;-74
2020/12/16 10:41:24;;;;;;;16.37;14.70;;;;;;;;;;5022000;28;20215;-73
2020/12/16 10:44:10;;;;;;;17.07;15.47;;;;;;;;;;5033095;28;20281;-74
2020/12/16 10:46:54;;;;;;;15.90;14.40;;;;;;;;;;5032341;28;20857;-73
2020/12/16 10:49:39;;;;;;;15.20;13.90;;;;;;;;;;5033193;28;20217;-74
2020/12/16 10:52:23;;;;;;;16.33;14.73;;;;;;;;;;5032066;28;20210;-75
2020/12/16 10:55:08;;;;;;;17.07;15.47;;;;;;;;;;5032708;28;20233;-72
2020/12/16 10:57:54;;;;;;;15.23;13.83;;;;;;;;;;5031509;28;20251;-76
2020/12/16 11:00:38;;;;;;;14.20;12.90;;;;;;;;;;5013360;28;20760;-75
2020/12/16 11:03:23;;;;;;;13.10;12.00;;;;;;;;;;5013377;28;20243;-74
2020/12/16 11:06:07;;;;;;;13.63;12.33;;;;;;;;;;5026682;28;20235;-71
2020/12/16 11:08:51;;;;;;;14.40;13.10;;;;;;;;;;5033214;28;20200;-74
2020/12/16 11:11:39;;;;;;;14.37;13.00;;;;;;;;;;5028888;28;20212;-73
2020/12/16 11:14:25;;;;;;;13.60;12.50;;;;;;;;;;5032517;28;20199;-74
2020/12/16 11:17:09;;;;;;;13.93;12.63;;;;;;;;;;5032130;28;20207;-73
2020/12/16 11:19:54;;;;;;;14.97;13.43;;;;;;;;;;5031696;28;20255;-74
2020/12/16 11:22:38;;;;;;;13.90;12.60;;;;;;;;;;5032653;28;20309;-72
2020/12/16 11:25:23;;;;;;;14.57;13.07;;;;;;;;;;5032269;28;20241;-72
2020/12/16 11:28:08;;;;;;;15.57;13.70;;;;;;;;;;5024834;28;20206;-73
2020/12/16 11:30:53;;;;;;;13.83;12.60;;;;;;;;;;5032493;28;20207;-74
2020/12/16 11:33:37;;;;;;;14.37;12.83;;;;;;;;;;5012753;28;20212;-71
2020/12/16 11:36:22;;;;;;;13.73;12.53;;;;;;;;;;5025794;28;20271;-74
2020/12/16 11:39:07;;;;;;;12.33;11.30;;;;;;;;;;5031081;28;20259;-76
2020/12/16 11:41:53;;;;;;;13.60;12.47;;;;;;;;;;5032135;28;20209;-75
2020/12/16 11:44:37;;;;;;;13.37;12.07;;;;;;;;;;5017352;28;20232;-73
2020/12/16 11:47:23;;;;;;;12.90;11.80;;;;;;;;;;5021418;28;20253;-73
2020/12/16 11:50:08;;;;;;;12.60;11.50;;;;;;;;;;5031151;28;20699;-70
2020/12/16 11:52:53;;;;;;;13.00;11.83;;;;;;;;;;5031619;28;20847;-75
2020/12/16 11:55:37;;;;;;;12.83;11.63;;;;;;;;;;5021746;28;20739;-72
2020/12/16 11:58:22;;;;;;;14.80;13.40;;;;;;;;;;5026149;28;20802;-73
2020/12/16 12:01:07;;;;;;;13.37;12.07;;;;;;;;;;5028772;28;20445;-73
2020/12/16 12:03:52;;;;;;;12.53;11.43;;;;;;;;;;5030564;28;20235;-75
2020/12/16 12:06:36;;;;;;;12.77;11.47;;;;;;;;;;5031547;28;20221;-73
2020/12/16 12:09:21;;;;;;;12.37;11.27;;;;;;;;;;5031701;28;20201;-72
2020/12/16 12:12:06;;;;;;;12.93;11.83;;;;;;;;;;5031482;28;20574;-73
2020/12/16 12:14:50;;;;;;;13.30;12.13;;;;;;;;;;5019573;28;20229;-78
2020/12/16 12:17:35;;;;;;;14.27;12.87;;;;;;;;;;5011848;28;20250;-74
2020/12/16 12:20:20;;;;;;;14.73;13.33;;;;;;;;;;5016091;28;20244;-74
2020/12/16 12:23:05;;;;;;;14.23;12.73;;;;;;;;;;5011421;28;20800;-73
2020/12/16 12:25:49;;;;;;;15.20;12.93;;;;;;;;;;5024339;28;20219;-76
2020/12/16 12:28:34;;;;;;;13.90;12.67;;;;;;;;;;5031313;28;20600;-73
2020/12/16 12:31:18;;;;;;;14.00;12.73;;;;;;;;;;5029662;28;20205;-73
2020/12/16 12:34:03;;;;;;;22.52;20.13;;;;;;;;;;5030777;28;20768;-72
2020/12/16 12:36:48;;;;;;;27.33;22.80;;;;;;;;;;5014523;28;20252;-75
2020/12/16 12:39:32;;;;;;;51.47;35.43;;;;;;;;;;5021843;28;20224;-74
2020/12/16 12:42:17;;;;;;;21.60;19.30;;;;;;;;;;5028512;28;20243;-72
2020/12/16 12:45:02;;;;;;;19.00;17.00;;;;;;;;;;5024442;28;20328;-74
2020/12/16 12:47:46;;;;;;;18.13;16.63;;;;;;;;;;5014678;28;20201;-72
2020/12/16 12:50:31;;;;;;;14.80;13.47;;;;;;;;;;5021485;28;20217;-72
2020/12/16 12:53:16;;;;;;;14.40;13.07;;;;;;;;;;5012777;28;20669;-73
2020/12/16 12:56:01;;;;;;;18.50;16.57;;;;;;;;;;5015867;28;20232;-72
2020/12/16 12:58:45;;;;;;;15.97;14.57;;;;;;;;;;5021989;28;20252;-73
2020/12/16 13:01:31;;;;;;;15.87;14.40;;;;;;;;;;5012370;28;20338;-73
2020/12/16 13:04:16;;;;;;;14.90;13.63;;;;;;;;;;5015841;28;20260;-73
2020/12/16 13:07:00;;;;;;;14.10;12.70;;;;;;;;;;5028546;28;20210;-72
2020/12/16 13:09:45;;;;;;;14.00;12.70;;;;;;;;;;5028941;28;20770;-72
2020/12/16 13:12:30;;;;;;;14.67;13.37;;;;;;;;;;5030297;28;20205;-73
2020/12/16 13:15:14;;;;;;;14.63;13.23;;;;;;;;;;5029176;28;20252;-72
2020/12/16 13:17:59;;;;;;;14.77;13.47;;;;;;;;;;5030110;28;20683;-73
2020/12/16 13:20:43;;;;;;;15.23;13.83;;;;;;;;;;5027164;28;20205;-72
2020/12/16 13:23:28;;;;;;;15.17;13.77;;;;;;;;;;5017124;28;20681;-72
2020/12/16 13:26:13;;;;;;;15.13;13.73;;;;;;;;;;5029963;28;20877;-71
2020/12/16 13:28:57;;;;;;;14.37;12.87;;;;;;;;;;5029968;28;20208;-72
2020/12/16 13:31:45;;;;;;;14.50;13.10;;;;;;;;;;5030501;28;20213;-72
2020/12/16 13:34:30;;;;;;;14.37;13.00;;;;;;;;;;5031004;28;20221;-73
2020/12/16 13:37:15;;;;;;;14.50;13.17;;;;;;;;;;5033212;28;20201;-74
2020/12/16 13:39:59;;;;;;;14.27;12.97;;;;;;;;;;5034418;28;20198;-74
2020/12/16 13:42:44;;;;;;;14.70;13.33;;;;;;;;;;5034561;28;20614;-72
2020/12/16 13:45:29;;;;;;;13.17;12.13;;;;;;;;;;5032955;28;20307;-72
2020/12/16 13:48:13;;;;;;;14.10;12.90;;;;;;;;;;5032806;28;20213;-72
2020/12/16 13:50:58;;;;;;;14.90;13.50;;;;;;;;;;5027535;28;20208;-71
2020/12/16 13:53:42;;;;;;;13.27;12.13;;;;;;;;;;5014568;28;20378;-71
2020/12/16 13:56:27;;;;;;;13.10;11.97;;;;;;;;;;5029095;28;20360;-71
2020/12/16 13:59:13;;;;;;;13.90;12.60;;;;;;;;;;5033603;28;20252;-73
2020/12/16 14:01:57;;;;;;;13.63;12.43;;;;;;;;;;5030532;28;20273;-70
2020/12/16 14:04:42;;;;;;;14.70;13.27;;;;;;;;;;5033174;28;20236;-70
2020/12/16 14:07:26;;;;;;;14.37;13.07;;;;;;;;;;5032776;28;20505;-69
2020/12/16 14:10:11;;;;;;;15.80;14.40;;;;;;;;;;5033244;28;20782;-70
2020/12/16 14:12:55;;;;;;;15.83;14.40;;;;;;;;;;5033291;28;20206;-72
2020/12/16 14:15:41;;;;;;;15.33;13.83;;;;;;;;;;5033441;28;20249;-72
2020/12/16 14:18:25;;;;;;;15.87;14.37;;;;;;;;;;5031754;28;20341;-71
2020/12/16 14:21:10;;;;;;;15.53;14.00;;;;;;;;;;5029177;28;20217;-74
2020/12/16 14:23:54;;;;;;;15.57;14.20;;;;;;;;;;5032253;28;20292;-74
2020/12/16 14:26:39;;;;;;;15.60;14.10;;;;;;;;;;5032901;28;20695;-73
2020/12/16 14:29:23;;;;;;;15.77;14.20;;;;;;;;;;5032362;28;20676;-75
2020/12/16 14:32:24;;;;;;;16.97;15.37;;;;;;;;;;4977983;28;20210;-72
2020/12/16 14:35:08;;;;;;;18.07;16.37;;;;;;;;;;5020660;28;20260;-72
2020/12/16 14:37:53;;;;;;;20.07;18.17;;;;;;;;;;5024309;28;20229;-72
2020/12/16 14:40:38;;;;;;;18.37;16.67;;;;;;;;;;5032515;28;20203;-70
2020/12/16 14:43:23;;;;;;;18.63;16.73;;;;;;;;;;5032411;28;20212;-72
2020/12/16 14:46:07;;;;;;;21.50;19.30;;;;;;;;;;5031323;28;20232;-72
2020/12/16 14:48:53;;;;;;;31.53;27.27;;;;;;;;;;5033061;28;20216;-71
2020/12/16 14:51:38;;;;;;;33.13;26.77;;;;;;;;;;5031995;28;20205;-72
2020/12/16 14:54:23;;;;;;;40.77;31.60;;;;;;;;;;5032518;28;20603;-72
2020/12/16 14:57:07;;;;;;;46.27;33.30;;;;;;;;;;5015758;28;20213;-72
2020/12/16 14:59:52;;;;;;;43.93;33.93;;;;;;;;;;5027495;28;20248;-72
2020/12/16 15:02:36;;;;;;;21.93;19.73;;;;;;;;;;5032490;28;20200;-71
2020/12/16 15:05:22;;;;;;;20.37;18.37;;;;;;;;;;5031217;28;20314;-71
2020/12/16 15:08:06;;;;;;;21.57;19.47;;;;;;;;;;5027666;28;20200;-71
2020/12/16 15:10:50;;;;;;;24.40;22.00;;;;;;;;;;5032387;28;20287;-72
2020/12/16 15:13:35;;;;;;;24.37;22.03;;;;;;;;;;5031095;28;20216;-73
2020/12/16 15:16:24;;;;;;;30.00;27.13;;;;;;;;;;5030273;28;20681;-72
2020/12/16 15:19:08;;;;;;;33.50;30.20;;;;;;;;;;5025226;28;20953;-72
2020/12/16 15:21:54;;;;;;;35.20;31.77;;;;;;;;;;5011575;28;20206;-72
2020/12/16 15:24:38;;;;;;;33.43;30.03;;;;;;;;;;5012229;28;20601;-72
2020/12/16 15:27:22;;;;;;;33.30;29.67;;;;;;;;;;5022614;28;20237;-72
2020/12/16 15:30:08;;;;;;;32.50;29.30;;;;;;;;;;5028345;28;20214;-72
2020/12/16 15:32:52;;;;;;;30.83;27.83;;;;;;;;;;5030110;28;20201;-70
2020/12/16 15:35:37;;;;;;;34.67;31.27;;;;;;;;;;5025437;28;20602;-70
2020/12/16 15:38:22;;;;;;;33.70;30.27;;;;;;;;;;5028812;28;20252;-71
2020/12/16 15:41:07;;;;;;;33.20;29.80;;;;;;;;;;5030721;28;20204;-71
2020/12/16 15:43:51;;;;;;;32.60;29.10;;;;;;;;;;5030660;28;20747;-71
2020/12/16 15:46:36;;;;;;;40.17;36.20;;;;;;;;;;5029759;28;20503;-71
2020/12/16 15:49:21;;;;;;;33.23;29.73;;;;;;;;;;5030153;28;20204;-72
2020/12/16 15:52:06;;;;;;;31.33;28.03;;;;;;;;;;5031977;28;20209;-71
2020/12/16 15:54:51;;;;;;;29.90;26.80;;;;;;;;;;5029155;28;20225;-71